createdAt,value
2019-03-29T00:00:08.488Z,101963.13
2019-03-29T00:01:13.874Z,101958.59
2019-03-29T00:02:18.578Z,101964.03
2019-03-29T00:03:22.942Z,101952.30
2019-03-29T00:04:27.876Z,101960.91
2019-03-29T00:05:32.320Z,101956.41
2019-03-29T00:06:37.328Z,101959.59
2019-03-29T00:07:42.283Z,101962.30
2019-03-29T00:08:46.738Z,101959.16
2019-03-29T00:09:51.339Z,101960.52
2019-03-29T00:10:56.283Z,101951.01
2019-03-29T00:12:00.844Z,101961.41
2019-03-29T00:13:06.119Z,101935.91
2019-03-29T00:14:10.483Z,101958.23
2019-03-29T00:15:15.256Z,101960.05
2019-03-29T00:16:19.872Z,101964.06
2019-03-29T00:17:24.487Z,101959.09
2019-03-29T00:18:29.687Z,101956.80
2019-03-29T00:19:34.375Z,101959.95
2019-03-29T00:20:38.984Z,101968.53
2019-03-29T00:21:43.353Z,101965.81
2019-03-29T00:22:48.057Z,101964.45
2019-03-29T00:24:05.896Z,101969.43
2019-03-29T00:24:59.086Z,101964.45
2019-03-29T00:26:03.790Z,101963.09
2019-03-29T00:27:08.404Z,101959.92
2019-03-29T00:28:13.031Z,101960.38
2019-03-29T00:29:17.740Z,101961.28
2019-03-29T00:30:22.338Z,101959.48
2019-03-29T00:31:26.625Z,101959.05
2019-03-29T00:32:31.932Z,101956.84
2019-03-29T00:33:36.814Z,101955.98
2019-03-29T00:34:42.073Z,101960.52
2019-03-29T00:35:46.759Z,101951.08
2019-03-29T00:36:52.040Z,101954.72
2019-03-29T00:37:56.765Z,101956.08
2019-03-29T00:39:01.584Z,101957.01
2019-03-29T00:40:07.009Z,101954.33
2019-03-29T00:41:11.741Z,101959.33
2019-03-29T00:42:17.124Z,101955.72
2019-03-29T00:43:21.935Z,101956.17
2019-03-29T00:44:26.968Z,101956.17
2019-03-29T00:45:31.935Z,101958.86
2019-03-29T00:46:36.305Z,101953.47
2019-03-29T00:47:40.984Z,101958.47
2019-03-29T00:48:45.692Z,101948.56
2019-03-29T00:49:50.053Z,101956.28
2019-03-29T00:50:54.732Z,101959.00
2019-03-29T00:51:59.334Z,101952.67
2019-03-29T00:53:04.034Z,101950.42
2019-03-29T00:54:08.886Z,101943.20
2019-03-29T00:55:13.890Z,101940.05
2019-03-29T00:56:18.340Z,101948.20
2019-03-29T00:57:22.707Z,101949.13
2019-03-29T00:58:27.917Z,101943.72
2019-03-29T00:59:32.432Z,101948.33
2019-03-29T01:00:37.250Z,101947.01
2019-03-29T01:01:41.617Z,101943.42
2019-03-29T01:02:46.548Z,101943.49
2019-03-29T01:03:51.344Z,101944.95
2019-03-29T01:04:55.804Z,101938.66
2019-03-29T01:06:00.319Z,101938.69
2019-03-29T01:07:05.237Z,101935.64
2019-03-29T01:08:10.799Z,101942.92
2019-03-29T01:09:15.515Z,101917.48
2019-03-29T01:10:19.954Z,101930.41
2019-03-29T01:11:24.400Z,101930.86
2019-03-29T01:12:28.876Z,101932.25
2019-03-29T01:13:33.410Z,101922.78
2019-03-29T01:14:38.179Z,101932.29
2019-03-29T01:15:42.700Z,101936.39
2019-03-29T01:16:47.220Z,101930.53
2019-03-29T01:17:52.181Z,101930.53
2019-03-29T01:18:56.640Z,101935.56
2019-03-29T01:20:01.333Z,101930.12
2019-03-29T01:21:06.027Z,101933.34
2019-03-29T01:22:10.473Z,101935.13
2019-03-29T01:23:15.176Z,101932.02
2019-03-29T01:24:20.140Z,101925.69
2019-03-29T01:25:24.829Z,101924.83
2019-03-29T01:26:29.271Z,101928.06
2019-03-29T01:27:33.965Z,101926.71
2019-03-29T01:28:38.688Z,101928.09
2019-03-29T01:29:43.266Z,101928.59
2019-03-29T01:30:48.266Z,101925.45
2019-03-29T01:31:53.532Z,101932.23
2019-03-29T01:32:59.026Z,101921.84
2019-03-29T01:34:03.502Z,101920.52
2019-03-29T01:35:09.148Z,101915.55
2019-03-29T01:36:14.002Z,101925.51
2019-03-29T01:37:19.847Z,101924.15
2019-03-29T01:38:24.729Z,101921.04
2019-03-29T01:39:29.555Z,101921.53
2019-03-29T01:40:35.052Z,101923.38
2019-03-29T01:41:39.558Z,101922.05
2019-03-29T01:42:44.947Z,101920.79
2019-03-29T01:43:49.727Z,101919.92
2019-03-29T01:44:54.335Z,101922.70
2019-03-29T01:45:58.776Z,101922.79
2019-03-29T01:47:04.084Z,101919.70
2019-03-29T01:48:08.921Z,101916.22
2019-03-29T01:49:13.624Z,101920.34
2019-03-29T01:50:18.390Z,101922.72
2019-03-29T01:51:23.143Z,101923.23
2019-03-29T01:52:27.592Z,101926.89
2019-03-29T01:53:32.203Z,101923.38
2019-03-29T01:54:36.835Z,101924.78
2019-03-29T01:55:41.452Z,101924.87
2019-03-29T01:56:45.947Z,101921.78
2019-03-29T01:57:50.573Z,101919.16
2019-03-29T01:58:55.595Z,101920.12
2019-03-29T01:59:59.970Z,101916.15
2019-03-29T02:01:04.487Z,101917.56
2019-03-29T02:02:08.927Z,101913.98
2019-03-29T02:03:13.620Z,101914.06
2019-03-29T02:04:18.324Z,101920.02
2019-03-29T02:05:22.692Z,101912.81
2019-03-29T02:06:27.395Z,101919.70
2019-03-29T02:07:32.007Z,101910.72
2019-03-29T02:08:37.836Z,101912.59
2019-03-29T02:09:42.939Z,101905.88
2019-03-29T02:10:47.379Z,101903.65
2019-03-29T02:11:52.000Z,101911.86
2019-03-29T02:12:56.439Z,101903.32
2019-03-29T02:14:00.799Z,101902.02
2019-03-29T02:15:05.979Z,101902.55
2019-03-29T02:16:10.420Z,101894.48
2019-03-29T02:17:15.368Z,101903.55
2019-03-29T02:18:20.640Z,101907.23
2019-03-29T02:19:25.354Z,101904.57
2019-03-29T02:20:29.809Z,101903.24
2019-03-29T02:21:34.679Z,101901.97
2019-03-29T02:22:39.374Z,101905.14
2019-03-29T02:23:44.079Z,101896.14
2019-03-29T02:24:49.940Z,101898.44
2019-03-29T02:25:54.735Z,101902.52
2019-03-29T02:27:00.216Z,101898.52
2019-03-29T02:28:06.114Z,101896.74
2019-03-29T02:29:11.031Z,101895.44
2019-03-29T02:30:15.854Z,101900.41
2019-03-29T02:31:25.213Z,101902.72
2019-03-29T02:32:27.290Z,101895.08
2019-03-29T02:33:31.898Z,101896.48
2019-03-29T02:34:36.291Z,101899.27
2019-03-29T02:35:41.069Z,101901.55
2019-03-29T02:36:45.929Z,101900.22
2019-03-29T02:37:50.609Z,101896.62
2019-03-29T02:38:56.391Z,101901.16
2019-03-29T02:40:01.758Z,101898.97
2019-03-29T02:41:06.708Z,101897.63
2019-03-29T02:42:11.315Z,101900.34
2019-03-29T02:43:15.684Z,101904.42
2019-03-29T02:44:20.298Z,101898.57
2019-03-29T02:45:25.072Z,101895.05
2019-03-29T02:46:29.693Z,101892.36
2019-03-29T02:47:34.063Z,101893.30
2019-03-29T02:48:38.708Z,101896.92
2019-03-29T02:49:43.491Z,101889.73
2019-03-29T02:50:47.855Z,101891.59
2019-03-29T02:51:52.226Z,101892.52
2019-03-29T02:52:56.666Z,101891.62
2019-03-29T02:54:01.548Z,101894.80
2019-03-29T02:55:06.456Z,101891.66
2019-03-29T02:56:11.718Z,101893.93
2019-03-29T02:57:16.333Z,101900.29
2019-03-29T02:58:21.098Z,101890.84
2019-03-29T02:59:25.976Z,101875.25
2019-03-29T03:00:30.719Z,101895.85
2019-03-29T03:01:35.143Z,101898.12
2019-03-29T03:02:39.842Z,101897.27
2019-03-29T03:03:44.285Z,101897.30
2019-03-29T03:04:48.998Z,101896.42
2019-03-29T03:05:53.690Z,101896.45
2019-03-29T03:06:58.303Z,101886.14
2019-03-29T03:08:02.828Z,101892.47
2019-03-29T03:09:13.924Z,101892.47
2019-03-29T03:10:13.968Z,101888.44
2019-03-29T03:11:18.651Z,101892.05
2019-03-29T03:12:23.166Z,101894.81
2019-03-29T03:13:27.683Z,101888.52
2019-03-29T03:14:32.057Z,101888.56
2019-03-29T03:15:36.840Z,101889.06
2019-03-29T03:16:41.206Z,101890.42
2019-03-29T03:17:45.908Z,101889.55
2019-03-29T03:18:50.756Z,101891.37
2019-03-29T03:19:55.195Z,101890.51
2019-03-29T03:20:59.640Z,101895.05
2019-03-29T03:22:04.403Z,101893.27
2019-03-29T03:23:09.183Z,101896.88
2019-03-29T03:24:13.609Z,101897.36
2019-03-29T03:25:18.141Z,101900.52
2019-03-29T03:26:22.495Z,101900.08
2019-03-29T03:27:26.862Z,101892.42
2019-03-29T03:28:31.303Z,101900.98
2019-03-29T03:29:35.897Z,101901.04
2019-03-29T03:30:40.525Z,101896.55
2019-03-29T03:31:45.163Z,101895.20
2019-03-29T03:32:49.567Z,101898.38
2019-03-29T03:33:54.437Z,101903.36
2019-03-29T03:34:59.122Z,101893.01
2019-03-29T03:36:03.816Z,101894.41
2019-03-29T03:37:08.299Z,101899.84
2019-03-29T03:38:12.686Z,101892.21
2019-03-29T03:39:30.701Z,101894.02
2019-03-29T03:40:23.871Z,101891.82
2019-03-29T03:41:28.380Z,101897.24
2019-03-29T03:42:33.053Z,101893.64
2019-03-29T03:43:37.498Z,101888.27
2019-03-29T03:44:42.175Z,101894.59
2019-03-29T03:45:46.709Z,101892.84
2019-03-29T03:46:51.400Z,101888.37
2019-03-29T03:47:56.076Z,101887.03
2019-03-29T03:49:01.046Z,101886.59
2019-03-29T03:50:06.118Z,101886.15
2019-03-29T03:51:11.186Z,101897.41
2019-03-29T03:52:15.942Z,101887.55
2019-03-29T03:53:20.713Z,101884.86
2019-03-29T03:54:25.226Z,101883.97
2019-03-29T03:55:30.639Z,101892.55
2019-03-29T03:56:35.267Z,101891.20
2019-03-29T03:57:40.194Z,101886.30
2019-03-29T03:58:45.821Z,101890.36
2019-03-29T03:59:51.369Z,101891.28
2019-03-29T04:00:59.765Z,101881.84
2019-03-29T04:02:04.268Z,101884.55
2019-03-29T04:03:09.121Z,101884.16
2019-03-29T04:04:13.815Z,101885.97
2019-03-29T04:05:18.251Z,101880.59
2019-03-29T04:06:23.197Z,101876.11
2019-03-29T04:07:27.900Z,101880.62
2019-03-29T04:08:32.328Z,101886.93
2019-03-29T04:09:49.508Z,101885.62
2019-03-29T04:10:43.424Z,101880.23
2019-03-29T04:11:48.449Z,101877.11
2019-03-29T04:12:53.056Z,101882.07
2019-03-29T04:13:57.502Z,101872.17
2019-03-29T04:15:02.135Z,101879.43
2019-03-29T04:16:06.733Z,101878.55
2019-03-29T04:17:11.364Z,101879.45
2019-03-29T04:18:16.600Z,101874.96
2019-03-29T04:19:21.243Z,101869.62
2019-03-29T04:20:25.848Z,101870.53
2019-03-29T04:21:30.631Z,101874.14
2019-03-29T04:22:34.996Z,101876.39
2019-03-29T04:23:39.943Z,101869.66
2019-03-29T04:24:45.292Z,101873.70
2019-03-29T04:25:49.968Z,101874.17
2019-03-29T04:26:54.622Z,101873.78
2019-03-29T04:27:59.472Z,101874.67
2019-03-29T04:29:05.336Z,101875.58
2019-03-29T04:30:10.219Z,101871.55
2019-03-29T04:31:15.237Z,101869.75
2019-03-29T04:32:19.941Z,101873.81
2019-03-29T04:33:24.576Z,101872.52
2019-03-29T04:34:29.165Z,101869.37
2019-03-29T04:35:33.846Z,101864.88
2019-03-29T04:36:38.549Z,101869.84
2019-03-29T04:37:42.999Z,101873.00
2019-03-29T04:38:47.429Z,101871.20
2019-03-29T04:40:06.495Z,101869.41
2019-03-29T04:40:58.871Z,101875.31
2019-03-29T04:42:03.323Z,101874.42
2019-03-29T04:43:07.868Z,101880.73
2019-03-29T04:44:12.235Z,101875.36
2019-03-29T04:45:16.749Z,101882.60
2019-03-29T04:46:21.519Z,101883.51
2019-03-29T04:47:26.298Z,101885.78
2019-03-29T04:48:30.746Z,101884.89
2019-03-29T04:49:35.417Z,101888.95
2019-03-29T04:50:40.269Z,101887.66
2019-03-29T04:51:45.154Z,101885.41
2019-03-29T04:52:49.769Z,101888.56
2019-03-29T04:53:54.423Z,101883.17
2019-03-29T04:54:59.044Z,101884.09
2019-03-29T04:56:03.491Z,101883.67
2019-03-29T04:57:08.192Z,101884.14
2019-03-29T04:58:12.703Z,101892.23
2019-03-29T04:59:17.633Z,101885.48
2019-03-29T05:00:22.322Z,101892.69
2019-03-29T05:01:26.690Z,101889.09
2019-03-29T05:02:31.069Z,101893.60
2019-03-29T05:03:35.667Z,101891.81
2019-03-29T05:04:40.182Z,101888.21
2019-03-29T05:05:44.786Z,101893.17
2019-03-29T05:06:49.393Z,101895.00
2019-03-29T05:07:54.006Z,101897.70
2019-03-29T05:08:58.875Z,101895.00
2019-03-29T05:10:03.576Z,101894.11
2019-03-29T05:11:08.093Z,101900.40
2019-03-29T05:12:12.720Z,101894.52
2019-03-29T05:13:17.588Z,101898.16
2019-03-29T05:14:21.962Z,101900.36
2019-03-29T05:15:26.653Z,101900.81
2019-03-29T05:16:31.350Z,101899.46
2019-03-29T05:17:36.177Z,101900.81
2019-03-29T05:18:40.569Z,101896.77
2019-03-29T05:19:45.598Z,101903.05
2019-03-29T05:20:50.219Z,101905.75
2019-03-29T05:21:54.839Z,101894.05
2019-03-29T05:22:59.541Z,101895.86
2019-03-29T05:24:04.075Z,101895.41
2019-03-29T05:25:08.849Z,101891.81
2019-03-29T05:26:13.216Z,101898.55
2019-03-29T05:27:18.095Z,101895.86
2019-03-29T05:28:22.467Z,101903.05
2019-03-29T05:29:27.655Z,101899.01
2019-03-29T05:30:32.532Z,101897.70
2019-03-29T05:31:37.393Z,101897.26
2019-03-29T05:32:42.348Z,101898.17
2019-03-29T05:33:47.029Z,101902.67
2019-03-29T05:34:51.643Z,101899.52
2019-03-29T05:35:56.903Z,101900.41
2019-03-29T05:37:01.338Z,101899.97
2019-03-29T05:38:06.040Z,101897.73
2019-03-29T05:39:11.489Z,101904.02
2019-03-29T05:40:15.860Z,101898.63
2019-03-29T05:41:20.471Z,101906.27
2019-03-29T05:42:24.932Z,101908.95
2019-03-29T05:43:29.801Z,101903.55
2019-03-29T05:44:34.467Z,101902.66
2019-03-29T05:45:38.898Z,101899.52
2019-03-29T05:46:43.590Z,101900.40
2019-03-29T05:47:48.289Z,101898.55
2019-03-29T05:48:52.728Z,101900.81
2019-03-29T05:49:57.678Z,101899.91
2019-03-29T05:51:02.287Z,101900.40
2019-03-29T05:52:07.054Z,101897.70
2019-03-29T05:53:11.759Z,101898.11
2019-03-29T05:54:16.461Z,101899.00
2019-03-29T05:55:31.948Z,101900.34
2019-03-29T05:56:27.641Z,101899.89
2019-03-29T05:57:32.252Z,101900.33
2019-03-29T05:58:36.708Z,101898.09
2019-03-29T05:59:41.573Z,101899.45
2019-03-29T06:00:46.273Z,101894.06
2019-03-29T06:01:50.883Z,101894.11
2019-03-29T06:02:55.510Z,101899.50
2019-03-29T06:04:00.457Z,101897.70
2019-03-29T06:05:05.205Z,101901.75
2019-03-29T06:06:10.090Z,101894.52
2019-03-29T06:07:14.854Z,101894.05
2019-03-29T06:08:19.753Z,101900.34
2019-03-29T06:09:24.503Z,101896.74
2019-03-29T06:10:29.158Z,101898.99
2019-03-29T06:11:33.886Z,101902.58
2019-03-29T06:12:38.529Z,101895.82
2019-03-29T06:13:43.027Z,101892.64
2019-03-29T06:14:47.467Z,101897.56
2019-03-29T06:15:52.453Z,101898.45
2019-03-29T06:16:57.071Z,101881.45
2019-03-29T06:18:01.703Z,101899.75
2019-03-29T06:19:06.313Z,101901.53
2019-03-29T06:20:11.422Z,101899.27
2019-03-29T06:21:16.387Z,101904.20
2019-03-29T06:22:20.851Z,101904.61
2019-03-29T06:23:25.576Z,101904.59
2019-03-29T06:24:30.555Z,101909.91
2019-03-29T06:25:35.650Z,101900.42
2019-03-29T06:26:40.573Z,101893.61
2019-03-29T06:27:45.016Z,101896.73
2019-03-29T06:28:49.396Z,101897.09
2019-03-29T06:29:54.256Z,101890.28
2019-03-29T06:30:59.305Z,101890.27
2019-03-29T06:32:04.000Z,101892.94
2019-03-29T06:33:08.715Z,101891.53
2019-03-29T06:34:13.510Z,101888.34
2019-03-29T06:35:18.207Z,101889.17
2019-03-29T06:36:25.325Z,101891.39
2019-03-29T06:37:30.691Z,101894.92
2019-03-29T06:38:36.678Z,101890.83
2019-03-29T06:39:41.443Z,101886.70
2019-03-29T06:40:46.139Z,101889.38
2019-03-29T06:41:51.164Z,101885.74
2019-03-29T06:42:56.029Z,101887.03
2019-03-29T06:44:00.820Z,101886.98
2019-03-29T06:45:05.696Z,101883.77
2019-03-29T06:46:10.307Z,101880.59
2019-03-29T06:47:14.670Z,101887.31
2019-03-29T06:48:19.456Z,101880.48
2019-03-29T06:49:24.322Z,101883.61
2019-03-29T06:50:29.018Z,101883.59
2019-03-29T06:51:33.393Z,101880.83
2019-03-29T06:52:38.073Z,101877.20
2019-03-29T06:53:42.701Z,101877.20
2019-03-29T06:54:47.138Z,101879.44
2019-03-29T06:55:51.585Z,101874.47
2019-03-29T06:56:56.194Z,101874.02
2019-03-29T06:58:01.056Z,101873.05
2019-03-29T06:59:06.007Z,101876.20
2019-03-29T07:00:10.792Z,101873.03
2019-03-29T07:01:15.224Z,101871.66
2019-03-29T07:02:19.844Z,101878.86
2019-03-29T07:03:24.607Z,101879.30
2019-03-29T07:04:29.250Z,101873.45
2019-03-29T07:05:33.624Z,101877.07
2019-03-29T07:06:38.068Z,101874.34
2019-03-29T07:07:44.673Z,101877.95
2019-03-29T07:08:49.458Z,101872.55
2019-03-29T07:09:54.394Z,101871.63
2019-03-29T07:10:58.831Z,101872.06
2019-03-29T07:12:03.272Z,101871.13
2019-03-29T07:13:07.721Z,101867.06
2019-03-29T07:14:12.342Z,101864.80
2019-03-29T07:15:17.117Z,101866.12
2019-03-29T07:16:21.732Z,101868.36
2019-03-29T07:17:26.423Z,101864.28
2019-03-29T07:18:31.116Z,101870.54
2019-03-29T07:19:35.815Z,101866.47
2019-03-29T07:20:40.432Z,101870.05
2019-03-29T07:21:44.806Z,101856.97
2019-03-29T07:22:49.488Z,101860.56
2019-03-29T07:23:54.455Z,101862.78
2019-03-29T07:24:59.073Z,101860.94
2019-03-29T07:26:03.954Z,101856.42
2019-03-29T07:27:09.923Z,101857.76
2019-03-29T07:28:14.289Z,101859.57
2019-03-29T07:29:19.000Z,101850.55
2019-03-29T07:30:23.524Z,101854.59
2019-03-29T07:31:28.623Z,101854.11
2019-03-29T07:32:33.488Z,101853.60
2019-03-29T07:33:38.271Z,101855.83
2019-03-29T07:34:42.738Z,101852.21
2019-03-29T07:35:47.754Z,101850.38
2019-03-29T07:36:52.451Z,101845.81
2019-03-29T07:37:57.140Z,101845.33
2019-03-29T07:39:01.516Z,101845.29
2019-03-29T07:40:06.832Z,101843.94
2019-03-29T07:41:11.981Z,101840.70
2019-03-29T07:42:16.856Z,101846.06
2019-03-29T07:43:24.032Z,101842.42
2019-03-29T07:44:28.343Z,101844.16
2019-03-29T07:45:32.863Z,101841.86
2019-03-29T07:46:37.581Z,101839.57
2019-03-29T07:47:41.966Z,101842.18
2019-03-29T07:48:46.589Z,101842.61
2019-03-29T07:49:51.223Z,101837.61
2019-03-29T07:50:55.961Z,101833.02
2019-03-29T07:52:01.100Z,101833.86
2019-03-29T07:53:05.590Z,101835.11
2019-03-29T07:54:10.034Z,101830.13
2019-03-29T07:55:14.414Z,101831.41
2019-03-29T07:56:18.784Z,101831.36
2019-03-29T07:57:23.363Z,101828.62
2019-03-29T07:58:28.255Z,101832.23
2019-03-29T07:59:33.140Z,101832.66
2019-03-29T08:00:37.573Z,101829.91
2019-03-29T08:01:42.188Z,101821.70
2019-03-29T08:02:46.708Z,101825.25
2019-03-29T08:03:53.187Z,101831.45
2019-03-29T08:04:57.713Z,101834.92
2019-03-29T08:06:02.667Z,101834.41
2019-03-29T08:07:07.366Z,101831.19
2019-03-29T08:08:23.369Z,101833.28
2019-03-29T08:09:22.657Z,101830.40
2019-03-29T08:10:30.184Z,101823.56
2019-03-29T08:11:40.132Z,101822.59
2019-03-29T08:12:40.580Z,101820.22
2019-03-29T08:13:44.420Z,101823.25
2019-03-29T08:14:49.302Z,101815.44
2019-03-29T08:15:54.322Z,101821.59
2019-03-29T08:16:58.840Z,101815.91
2019-03-29T08:18:03.541Z,101816.66
2019-03-29T08:19:07.905Z,101811.12
2019-03-29T08:20:38.073Z,101814.58
2019-03-29T08:21:18.617Z,101811.67
2019-03-29T08:22:23.317Z,101811.39
2019-03-29T08:23:28.948Z,101810.23
2019-03-29T08:24:33.458Z,101810.56
2019-03-29T08:25:38.322Z,101801.92
2019-03-29T08:26:42.778Z,101808.57
2019-03-29T08:27:47.467Z,101803.09
2019-03-29T08:28:52.163Z,101799.95
2019-03-29T08:29:56.548Z,101812.52
2019-03-29T08:31:01.177Z,101802.55
2019-03-29T08:32:05.629Z,101804.23
2019-03-29T08:33:10.807Z,101796.58
2019-03-29T08:34:15.510Z,101792.00
2019-03-29T08:35:20.221Z,101793.41
2019-03-29T08:36:25.498Z,101792.48
2019-03-29T08:37:30.278Z,101803.70
2019-03-29T08:38:34.972Z,101800.20
2019-03-29T08:39:39.356Z,101796.13
2019-03-29T08:40:45.392Z,101805.52
2019-03-29T08:41:59.943Z,101802.65
2019-03-29T08:42:56.184Z,101805.05
2019-03-29T08:44:00.548Z,101799.80
2019-03-29T08:45:05.657Z,101799.01
2019-03-29T08:46:10.586Z,101796.34
2019-03-29T08:47:15.456Z,101789.63
2019-03-29T08:48:19.985Z,101795.92
2019-03-29T08:49:24.433Z,101791.53
2019-03-29T08:50:29.315Z,101788.59
2019-03-29T08:51:33.679Z,101791.05
2019-03-29T08:52:38.057Z,101794.07
2019-03-29T08:53:42.672Z,101790.27
2019-03-29T08:54:50.990Z,101787.47
2019-03-29T08:55:54.123Z,101788.88
2019-03-29T08:56:58.663Z,101791.97
2019-03-29T08:58:03.024Z,101788.70
2019-03-29T08:59:07.468Z,101786.81
2019-03-29T09:00:15.736Z,101788.03
2019-03-29T09:01:19.488Z,101791.89
2019-03-29T09:02:25.291Z,101785.92
2019-03-29T09:03:29.946Z,101779.03
2019-03-29T09:04:34.636Z,101781.42
2019-03-29T09:05:39.544Z,101784.88
2019-03-29T09:06:53.276Z,101787.33
2019-03-29T09:07:50.272Z,101782.34
2019-03-29T09:08:55.394Z,101781.00
2019-03-29T09:09:59.936Z,101785.58
2019-03-29T09:11:07.507Z,101783.92
2019-03-29T09:12:14.564Z,101786.39
2019-03-29T09:13:17.662Z,101788.51
2019-03-29T09:14:22.026Z,101779.27
2019-03-29T09:15:26.563Z,101793.61
2019-03-29T09:16:31.890Z,101783.33
2019-03-29T09:17:36.395Z,101783.62
2019-03-29T09:18:40.764Z,101784.73
2019-03-29T09:19:45.279Z,101781.94
2019-03-29T09:20:49.880Z,101783.99
2019-03-29T09:21:54.422Z,101785.46
2019-03-29T09:22:58.964Z,101785.72
2019-03-29T09:24:03.408Z,101781.16
2019-03-29T09:25:08.047Z,101787.14
2019-03-29T09:26:12.418Z,101787.56
2019-03-29T09:27:17.030Z,101772.91
2019-03-29T09:28:21.657Z,101780.15
2019-03-29T09:29:26.345Z,101778.78
2019-03-29T09:30:30.971Z,101773.23
2019-03-29T09:31:35.422Z,101775.80
2019-03-29T09:32:39.862Z,101768.70
2019-03-29T09:33:44.233Z,101766.95
2019-03-29T09:34:49.103Z,101764.38
2019-03-29T09:35:53.816Z,101769.45
2019-03-29T09:36:59.938Z,101772.32
2019-03-29T09:38:04.660Z,101768.91
2019-03-29T09:39:09.466Z,101759.10
2019-03-29T09:40:14.603Z,101759.24
2019-03-29T09:41:19.617Z,101758.48
2019-03-29T09:42:29.549Z,101758.08
2019-03-29T09:43:30.985Z,101763.67
2019-03-29T09:44:35.759Z,101760.75
2019-03-29T09:45:41.299Z,101760.09
2019-03-29T09:46:46.054Z,101764.25
2019-03-29T09:47:51.219Z,101759.14
2019-03-29T09:48:55.696Z,101761.99
2019-03-29T09:50:00.560Z,101754.94
2019-03-29T09:51:05.060Z,101762.19
2019-03-29T09:52:10.004Z,101760.75
2019-03-29T09:53:14.533Z,101758.30
2019-03-29T09:54:20.497Z,101759.20
2019-03-29T09:55:25.492Z,101757.19
2019-03-29T09:56:38.790Z,101750.23
2019-03-29T09:57:37.659Z,101758.27
2019-03-29T09:58:45.097Z,101762.66
2019-03-29T09:59:49.915Z,101754.92
2019-03-29T10:00:54.412Z,101750.89
2019-03-29T10:01:59.280Z,101750.54
2019-03-29T10:03:04.788Z,101729.60
2019-03-29T10:04:09.980Z,101748.63
2019-03-29T10:05:14.597Z,101748.09
2019-03-29T10:06:19.468Z,101747.31
2019-03-29T10:07:24.697Z,101741.66
2019-03-29T10:08:29.414Z,101737.66
2019-03-29T10:09:33.880Z,101735.17
2019-03-29T10:10:38.375Z,101738.80
2019-03-29T10:11:43.257Z,101736.61
2019-03-29T10:12:48.136Z,101738.45
2019-03-29T10:13:53.219Z,101733.08
2019-03-29T10:14:58.213Z,101736.77
2019-03-29T10:16:02.859Z,101724.05
2019-03-29T10:17:07.319Z,101733.22
2019-03-29T10:18:11.686Z,101725.42
2019-03-29T10:19:16.303Z,101717.46
2019-03-29T10:20:20.879Z,101719.00
2019-03-29T10:21:25.406Z,101718.45
2019-03-29T10:22:30.109Z,101719.23
2019-03-29T10:23:34.518Z,101713.56
2019-03-29T10:24:39.462Z,101716.55
2019-03-29T10:25:43.924Z,101716.65
2019-03-29T10:26:48.415Z,101720.14
2019-03-29T10:27:53.091Z,101726.33
2019-03-29T10:28:57.833Z,101720.23
2019-03-29T10:30:02.360Z,101726.62
2019-03-29T10:31:07.347Z,101724.47
2019-03-29T10:32:12.121Z,101719.75
2019-03-29T10:33:16.871Z,101719.40
2019-03-29T10:34:21.513Z,101715.79
2019-03-29T10:35:26.019Z,101716.59
2019-03-29T10:36:30.980Z,101719.12
2019-03-29T10:37:37.042Z,101709.55
2019-03-29T10:38:41.829Z,101716.06
2019-03-29T10:39:46.562Z,101704.07
2019-03-29T10:40:51.600Z,101699.78
2019-03-29T10:41:56.345Z,101695.60
2019-03-29T10:43:01.283Z,101692.94
2019-03-29T10:44:05.685Z,101693.52
2019-03-29T10:45:10.682Z,101691.64
2019-03-29T10:46:15.372Z,101687.45
2019-03-29T10:47:19.740Z,101688.05
2019-03-29T10:48:24.609Z,101687.16
2019-03-29T10:49:29.272Z,101683.27
2019-03-29T10:50:33.811Z,101682.56
2019-03-29T10:51:38.506Z,101677.57
2019-03-29T10:52:43.409Z,101682.45
2019-03-29T10:53:48.075Z,101674.64
2019-03-29T10:54:52.631Z,101680.94
2019-03-29T10:55:57.281Z,101682.16
2019-03-29T10:57:01.857Z,101681.56
2019-03-29T10:58:09.647Z,101688.75
2019-03-29T10:59:26.652Z,101682.78
2019-03-29T11:00:33.124Z,101678.41
2019-03-29T11:01:37.860Z,101683.34
2019-03-29T11:02:42.435Z,101679.97
2019-03-29T11:03:46.978Z,101677.94
2019-03-29T11:04:51.425Z,101682.38
2019-03-29T11:05:56.179Z,101680.79
2019-03-29T11:07:00.906Z,101680.79
2019-03-29T11:08:05.614Z,101687.30
2019-03-29T11:09:10.135Z,101684.72
2019-03-29T11:10:23.349Z,101681.63
2019-03-29T11:11:27.876Z,101689.30
2019-03-29T11:12:32.265Z,101684.08
2019-03-29T11:13:36.847Z,101683.01
2019-03-29T11:14:41.237Z,101683.27
2019-03-29T11:15:45.567Z,101683.19
2019-03-29T11:16:50.348Z,101681.48
2019-03-29T11:17:55.048Z,101679.78
2019-03-29T11:18:59.991Z,101684.97
2019-03-29T11:20:04.981Z,101685.67
2019-03-29T11:21:09.915Z,101675.31
2019-03-29T11:22:14.610Z,101680.68
2019-03-29T11:23:19.099Z,101683.94
2019-03-29T11:24:23.858Z,101675.53
2019-03-29T11:25:28.309Z,101667.50
2019-03-29T11:26:33.533Z,101670.23
2019-03-29T11:27:38.237Z,101670.94
2019-03-29T11:28:42.911Z,101660.65
2019-03-29T11:29:47.611Z,101659.66
2019-03-29T11:30:52.279Z,101672.31
2019-03-29T11:31:56.939Z,101669.09
2019-03-29T11:33:01.507Z,101667.31
2019-03-29T11:34:05.954Z,101660.57
2019-03-29T11:35:10.499Z,101661.68
2019-03-29T11:36:15.303Z,101650.87
2019-03-29T11:37:20.055Z,101641.29
2019-03-29T11:38:24.988Z,101649.84
2019-03-29T11:39:29.812Z,101650.24
2019-03-29T11:40:34.767Z,101638.81
2019-03-29T11:41:39.135Z,101644.21
2019-03-29T11:42:44.358Z,101647.36
2019-03-29T11:43:48.882Z,101644.84
2019-03-29T11:44:53.251Z,101646.55
2019-03-29T11:45:57.937Z,101637.19
2019-03-29T11:47:02.739Z,101634.77
2019-03-29T11:48:09.375Z,101636.48
2019-03-29T11:49:14.497Z,101637.19
2019-03-29T11:50:19.036Z,101629.70
2019-03-29T11:51:24.450Z,101629.84
2019-03-29T11:52:28.974Z,101628.25
2019-03-29T11:53:33.659Z,101615.33
2019-03-29T11:54:38.468Z,101627.42
2019-03-29T11:55:42.822Z,101626.34
2019-03-29T11:56:47.799Z,101624.82
2019-03-29T11:57:55.702Z,101627.89
2019-03-29T11:58:59.168Z,101622.33
2019-03-29T12:00:03.879Z,101623.03
2019-03-29T12:01:08.560Z,101618.36
2019-03-29T12:02:13.240Z,101615.06
2019-03-29T12:03:17.693Z,101616.31
2019-03-29T12:04:22.136Z,101621.23
2019-03-29T12:05:26.582Z,101630.75
2019-03-29T12:06:31.270Z,101620.83
2019-03-29T12:07:35.723Z,101615.07
2019-03-29T12:08:40.690Z,101599.41
2019-03-29T12:09:45.561Z,101612.80
2019-03-29T12:10:49.990Z,101611.18
2019-03-29T12:11:54.679Z,101605.30
2019-03-29T12:12:59.140Z,101612.95
2019-03-29T12:14:05.154Z,101610.30
2019-03-29T12:15:09.843Z,101608.92
2019-03-29T12:16:14.371Z,101607.74
2019-03-29T12:17:18.798Z,101608.62
2019-03-29T12:18:23.238Z,101611.37
2019-03-29T12:19:28.012Z,101602.34